Time;durP1;ratioP1;P1;durP2;ratioP2;P2;SDS_P1;SDS_P2;PMS_P1;PMS_P2;Temp;Humidity;BMP_temperature;BMP_pressure;BME280_temperature;BME280_humidity;BME280_pressure;Samples;Min_cycle;Max_cycle;Signal;HPM_P1;HPM_P2
2022/03/23 00:00:48;;;;;;;33.40;14.20;;;;;;;7.44;33.77;101550.85;104787;1274;59327;-72
2022/03/23 00:03:37;;;;;;;23.90;11.60;;;;;;;7.40;33.76;101549.80;104824;1274;59542;-72
2022/03/23 00:06:25;;;;;;;29.10;14.30;;;;;;;7.33;34.01;101544.79;104592;1274;72802;-72
2022/03/23 00:09:14;;;;;;;31.50;14.70;;;;;;;7.27;34.19;101548.39;104784;1274;66742;-72
2022/03/23 00:12:07;;;;;;;30.50;14.70;;;;;;;7.20;34.22;101545.84;104790;1274;73422;-72
2022/03/23 00:14:58;;;;;;;30.50;15.10;;;;;;;7.15;34.70;101545.66;104753;1275;59411;-72
2022/03/23 00:17:48;;;;;;;31.00;15.30;;;;;;;7.10;34.73;101542.17;104738;1274;59314;-72
2022/03/23 00:20:37;;;;;;;31.10;14.90;;;;;;;7.04;34.98;101540.13;104781;1273;72491;-72
2022/03/23 00:23:25;;;;;;;26.80;14.10;;;;;;;6.98;35.17;101538.41;104767;1275;67961;-72
2022/03/23 00:26:13;;;;;;;32.00;15.60;;;;;;;6.92;35.21;101537.92;104741;1274;71608;-72
2022/03/23 00:29:03;;;;;;;34.20;16.50;;;;;;;6.84;35.11;101534.90;104984;1274;59313;-71
2022/03/23 00:31:51;;;;;;;28.10;15.30;;;;;;;6.75;35.86;101536.81;104785;1274;59432;-71
2022/03/23 00:34:39;;;;;;;30.20;14.10;;;;;;;6.69;36.15;101532.84;104744;1274;72603;-71
2022/03/23 00:37:27;;;;;;;28.50;14.70;;;;;;;6.63;35.96;101528.08;104795;1274;67841;-71
2022/03/23 00:40:16;;;;;;;36.80;16.60;;;;;;;6.57;36.11;101524.45;104631;1274;72157;-71
2022/03/23 00:43:04;;;;;;;30.80;16.40;;;;;;;6.50;36.32;101523.13;104735;1275;59218;-72
2022/03/23 00:45:52;;;;;;;30.80;15.40;;;;;;;6.43;36.59;101524.63;104842;1274;59320;-72
2022/03/23 00:48:40;;;;;;;32.70;16.20;;;;;;;6.33;36.91;101524.10;104970;1274;72587;-69
2022/03/23 00:51:28;;;;;;;34.20;16.20;;;;;;;6.24;36.85;101524.77;104962;1274;66942;-69
2022/03/23 00:54:16;;;;;;;38.20;15.90;;;;;;;6.15;37.36;101520.52;104731;1274;73566;-69
2022/03/23 00:57:06;;;;;;;29.50;15.40;;;;;;;6.06;37.85;101522.96;104720;1275;59394;-69
2022/03/23 00:59:56;;;;;;;31.50;15.40;;;;;;;5.98;37.94;101523.77;104806;1274;59416;-69
2022/03/23 01:02:46;;;;;;;29.70;14.80;;;;;;;5.88;38.04;101514.05;104761;1274;72742;-70
2022/03/23 01:05:34;;;;;;;31.80;15.80;;;;;;;5.79;38.24;101508.17;104795;1274;66951;-70
2022/03/23 01:08:25;;;;;;;30.40;15.50;;;;;;;5.71;38.45;101510.23;104781;1274;70810;-70
2022/03/23 01:11:16;;;;;;;36.10;17.50;;;;;;;5.61;38.72;101511.60;104657;1274;59417;-70
2022/03/23 01:14:08;;;;;;;33.90;15.60;;;;;;;5.53;38.85;101513.45;104059;1274;1003115;-69
2022/03/23 01:16:58;;;;;;;34.70;17.20;;;;;;;5.44;38.95;101510.61;104792;1274;72760;-69
2022/03/23 01:19:46;;;;;;;33.90;16.70;;;;;;;5.35;39.24;101508.08;104632;1276;67172;-70
2022/03/23 01:22:35;;;;;;;34.10;17.30;;;;;;;5.26;39.46;101509.94;104782;1274;73530;-70
2022/03/23 01:25:24;;;;;;;33.60;17.50;;;;;;;5.19;39.81;101504.57;104104;1274;1003795;-70
2022/03/23 01:28:12;;;;;;;34.50;15.60;;;;;;;5.11;39.98;101505.16;104759;1274;59945;-70
2022/03/23 01:31:00;;;;;;;37.20;17.80;;;;;;;5.04;40.12;101505.55;104752;1276;72932;-70
2022/03/23 01:33:48;;;;;;;35.70;17.50;;;;;;;4.98;40.45;101509.80;104770;1276;66843;-70
2022/03/23 01:36:36;;;;;;;35.20;16.60;;;;;;;4.91;40.51;101505.45;104757;1276;71961;-70
2022/03/23 01:39:24;;;;;;;36.40;17.00;;;;;;;4.85;40.74;101507.20;104736;1276;59218;-70
2022/03/23 01:42:15;;;;;;;34.50;15.80;;;;;;;4.81;40.90;101502.94;104875;1275;59420;-70
2022/03/23 01:45:08;;;;;;;35.50;15.80;;;;;;;4.76;40.99;101505.35;105014;1276;72189;-70
2022/03/23 01:47:56;;;;;;;32.20;15.40;;;;;;;4.77;41.06;101502.52;104633;1276;67829;-70
2022/03/23 01:50:46;;;;;;;33.40;14.90;;;;;;;4.76;40.82;101496.73;105246;1276;71602;-70
2022/03/23 01:53:34;;;;;;;30.50;15.30;;;;;;;4.74;40.90;101492.41;104794;1276;59382;-68
2022/03/23 01:56:22;;;;;;;29.80;14.20;;;;;;;4.75;41.06;101491.67;104978;1276;59711;-69
2022/03/23 01:59:12;;;;;;;29.60;14.10;;;;;;;4.75;40.94;101489.72;104237;1276;1003027;-69
2022/03/23 02:02:00;;;;;;;30.30;15.00;;;;;;;4.77;41.03;101487.37;104840;1276;68071;-69
2022/03/23 02:04:51;;;;;;;31.20;14.40;;;;;;;4.77;40.92;101485.45;104684;1276;73174;-69
2022/03/23 02:07:39;;;;;;;30.30;15.60;;;;;;;4.82;40.87;101482.66;104734;1276;59420;-68
2022/03/23 02:10:31;;;;;;;27.20;13.80;;;;;;;4.83;40.73;101477.89;104007;1276;1003116;-69
2022/03/23 02:13:25;;;;;;;30.20;14.70;;;;;;;4.82;40.62;101479.50;104905;1276;70956;-69
2022/03/23 02:16:14;;;;;;;27.60;13.40;;;;;;;4.83;40.68;101478.06;104751;1276;66921;-69
2022/03/23 02:19:02;;;;;;;25.50;13.70;;;;;;;4.83;40.51;101477.02;104722;1274;70925;-69
2022/03/23 02:21:55;;;;;;;26.80;14.10;;;;;;;4.84;40.64;101475.73;104776;1275;59303;-69
2022/03/23 02:24:48;;;;;;;29.90;14.40;;;;;;;4.87;40.55;101470.01;104751;1276;61200;-70
2022/03/23 02:27:38;;;;;;;28.30;13.00;;;;;;;4.88;40.54;101474.57;104493;1276;73000;-70
2022/03/23 02:30:26;;;;;;;46.60;19.10;;;;;;;4.88;40.55;101469.13;105014;1274;67077;-69
2022/03/23 02:33:19;;;;;;;102.90;30.80;;;;;;;4.87;40.67;101467.91;104789;1275;73398;-69
2022/03/23 02:36:07;;;;;;;89.80;29.30;;;;;;;4.86;40.49;101466.36;104775;1274;59242;-69
2022/03/23 02:38:56;;;;;;;75.20;27.00;;;;;;;4.83;40.56;101464.71;104748;1274;59849;-68
2022/03/23 02:41:47;;;;;;;120.80;39.20;;;;;;;4.79;40.64;101463.42;104756;1274;71163;-68
2022/03/23 02:44:35;;;;;;;63.40;24.50;;;;;;;4.75;40.74;101467.22;105024;1275;68119;-69
2022/03/23 02:47:23;;;;;;;54.20;23.10;;;;;;;4.70;40.99;101457.38;104792;1274;71688;-69
2022/03/23 02:50:15;;;;;;;40.20;19.20;;;;;;;4.64;41.12;101456.52;105080;1274;59291;-68
2022/03/23 03:02:41;;;;;;;28.40;15.90;;;;;;;4.46;41.52;101453.70;104788;1274;73142;-69
2022/03/23 03:05:30;;;;;;;33.10;15.00;;;;;;;4.42;41.53;101455.39;104801;1274;59295;-69
2022/03/23 03:11:26;;;;;;;32.50;14.70;;;;;;;4.33;41.71;101453.20;104927;1275;71909;-69
2022/03/23 03:14:14;;;;;;;28.50;14.30;;;;;;;4.29;41.92;101454.02;104608;1274;66119;-68
2022/03/23 03:17:04;;;;;;;29.10;13.80;;;;;;;4.25;41.78;101451.51;104805;1274;73334;-69
2022/03/23 03:19:54;;;;;;;29.40;14.40;;;;;;;4.21;41.95;101447.77;104752;1275;59251;-69
2022/03/23 03:22:45;;;;;;;31.60;15.20;;;;;;;4.17;41.92;101447.54;104589;1276;59861;-68
2022/03/23 03:25:33;;;;;;;31.10;16.00;;;;;;;4.11;42.05;101447.88;104875;1274;72765;-69
2022/03/23 03:28:21;;;;;;;36.30;18.10;;;;;;;4.07;42.08;101446.22;104829;1274;66286;-69
2022/03/23 03:31:14;;;;;;;37.20;18.20;;;;;;;4.03;42.35;101445.99;104958;1275;71765;-69
2022/03/23 03:34:03;;;;;;;52.90;24.00;;;;;;;3.98;42.23;101447.34;105028;1274;59303;-69
2022/03/23 03:36:54;;;;;;;54.90;24.40;;;;;;;3.94;42.51;101451.52;104132;1276;1005047;-69
2022/03/23 03:39:42;;;;;;;63.90;26.10;;;;;;;3.89;42.58;101446.20;104773;1275;71276;-69
2022/03/23 03:42:30;;;;;;;149.90;48.60;;;;;;;3.84;42.77;101450.35;104774;1274;68351;-69
2022/03/23 03:45:18;;;;;;;115.30;41.20;;;;;;;3.82;42.82;101453.95;104772;1274;73118;-67
2022/03/23 03:48:06;;;;;;;83.30;33.10;;;;;;;3.77;42.77;101455.31;104758;1275;59944;-68
2022/03/23 03:50:54;;;;;;;68.20;28.60;;;;;;;3.70;43.25;101458.66;105809;1276;60162;-68
2022/03/23 03:53:45;;;;;;;66.00;29.20;;;;;;;3.63;43.41;101454.47;103996;1276;1003168;-68
2022/03/23 03:56:34;;;;;;;52.10;25.10;;;;;;;3.55;43.68;101457.80;104975;1276;67161;-68
2022/03/23 03:59:22;;;;;;;40.50;18.70;;;;;;;3.50;43.88;101458.66;104848;1275;72227;-70
2022/03/23 04:02:10;;;;;;;33.60;16.50;;;;;;;3.43;43.97;101461.27;104755;1275;59310;-69
2022/03/23 04:04:59;;;;;;;31.70;16.20;;;;;;;3.37;44.21;101464.08;104255;1274;1003685;-70
2022/03/23 04:07:48;;;;;;;29.20;14.80;;;;;;;3.31;44.38;101462.98;104839;1274;71261;-69
2022/03/23 04:10:37;;;;;;;30.30;14.80;;;;;;;3.25;44.68;101460.67;104739;1274;65993;-69
2022/03/23 04:13:27;;;;;;;29.30;15.10;;;;;;;3.19;44.73;101463.11;104784;1274;73030;-69
2022/03/23 04:16:15;;;;;;;31.30;15.30;;;;;;;3.12;45.00;101462.39;104780;1274;59301;-69
2022/03/23 04:19:05;;;;;;;30.40;14.30;;;;;;;3.08;44.88;101464.07;104605;1275;60216;-69
2022/03/23 04:21:54;;;;;;;26.30;14.30;;;;;;;3.03;45.20;101463.85;104807;1276;71320;-69
2022/03/23 04:24:43;;;;;;;30.40;14.70;;;;;;;3.00;45.36;101464.63;104756;1276;68177;-69
2022/03/23 04:27:31;;;;;;;32.30;14.70;;;;;;;2.96;45.52;101462.95;104766;1274;71902;-69
2022/03/23 04:30:22;;;;;;;27.00;13.70;;;;;;;2.93;45.66;101466.02;105038;1276;59319;-69
2022/03/23 04:33:10;;;;;;;24.30;13.00;;;;;;;2.89;45.55;101466.45;104643;1275;60361;-69
2022/03/23 04:35:59;;;;;;;33.00;15.60;;;;;;;2.87;45.67;101469.48;103696;1276;1003750;-70
2022/03/23 04:38:47;;;;;;;30.10;15.20;;;;;;;2.84;45.76;101467.63;105018;1276;68402;-70
2022/03/23 04:41:35;;;;;;;29.50;15.00;;;;;;;2.82;45.72;101462.23;104801;1274;72847;-69
2022/03/23 04:44:24;;;;;;;28.10;14.70;;;;;;;2.81;46.07;101460.52;104548;1275;59680;-70
2022/03/23 04:47:12;;;;;;;28.50;15.10;;;;;;;2.78;45.86;101459.17;104977;1274;60616;-70
2022/03/23 04:50:02;;;;;;;30.80;16.40;;;;;;;2.78;45.84;101464.63;105032;1274;72228;-70
2022/03/23 04:52:52;;;;;;;25.30;12.90;;;;;;;2.78;45.71;101467.77;104770;1275;66725;-70
2022/03/23 04:55:40;;;;;;;26.90;13.40;;;;;;;2.79;46.00;101461.25;104820;1274;73457;-70
2022/03/23 04:58:29;;;;;;;28.30;14.80;;;;;;;2.81;45.96;101463.84;104709;1276;59392;-70
2022/03/23 05:01:19;;;;;;;26.40;15.30;;;;;;;2.82;45.99;101461.38;105136;1276;60256;-70
2022/03/23 05:04:08;;;;;;;28.10;14.20;;;;;;;2.82;45.92;101459.44;104746;1276;71183;-71
2022/03/23 05:06:56;;;;;;;28.60;13.90;;;;;;;2.83;45.97;101455.03;104814;1274;66707;-70
2022/03/23 05:09:44;;;;;;;29.20;14.50;;;;;;;2.86;45.86;101458.10;104792;1276;71372;-70
2022/03/23 05:12:32;;;;;;;32.80;15.70;;;;;;;2.88;45.82;101459.10;104684;1275;59389;-69
2022/03/23 05:15:20;;;;;;;33.70;15.70;;;;;;;2.91;45.95;101459.05;104766;1274;60380;-70
2022/03/23 05:18:08;;;;;;;37.90;16.90;;;;;;;2.94;45.68;101461.98;104709;1276;72943;-72
2022/03/23 05:20:56;;;;;;;32.50;16.90;;;;;;;2.97;45.64;101464.35;104833;1274;66818;-70
2022/03/23 05:23:44;;;;;;;34.70;16.40;;;;;;;3.00;45.53;101467.61;104703;1274;73368;-69
2022/03/23 05:26:32;;;;;;;38.20;17.70;;;;;;;3.02;45.48;101470.72;104716;1276;59269;-73
2022/03/23 05:29:20;;;;;;;32.70;15.20;;;;;;;3.04;45.67;101469.60;105166;1276;59414;-70
2022/03/23 05:32:10;;;;;;;41.30;18.40;;;;;;;3.06;45.51;101465.54;104981;1276;72471;-72
2022/03/23 05:34:58;;;;;;;43.10;18.50;;;;;;;3.13;45.53;101469.24;104756;1274;66538;-71
2022/03/23 05:37:47;;;;;;;42.70;19.90;;;;;;;3.16;45.37;101468.09;104977;1276;72144;-70
2022/03/23 05:40:37;;;;;;;41.10;18.80;;;;;;;3.20;45.22;101464.83;105066;1274;59384;-69
2022/03/23 05:43:25;;;;;;;40.20;17.80;;;;;;;3.26;45.11;101463.99;104598;1275;60243;-70
2022/03/23 05:46:13;;;;;;;38.60;17.20;;;;;;;3.32;45.09;101457.16;104796;1274;72299;-70
2022/03/23 05:49:03;;;;;;;37.00;18.00;;;;;;;3.40;44.88;101459.08;105250;1274;66535;-70
2022/03/23 05:51:52;;;;;;;37.70;16.60;;;;;;;3.47;44.73;101457.50;104982;1274;72801;-70
2022/03/23 05:54:40;;;;;;;34.60;16.30;;;;;;;3.56;44.47;101457.27;104772;1274;59330;-68
2022/03/23 05:57:29;;;;;;;33.90;16.20;;;;;;;3.65;43.95;101458.45;104742;1275;60585;-70
2022/03/23 06:00:19;;;;;;;32.80;15.50;;;;;;;3.75;43.74;101459.55;104764;1276;70701;-70
2022/03/23 06:03:11;;;;;;;33.20;16.10;;;;;;;3.86;43.48;101459.82;105063;1276;68528;-71
2022/03/23 06:05:59;;;;;;;29.50;15.90;;;;;;;3.95;43.14;101463.05;104711;1274;73167;-69
2022/03/23 06:08:47;;;;;;;33.80;17.00;;;;;;;4.07;42.74;101460.98;104980;1276;59324;-70
2022/03/23 06:11:35;;;;;;;39.10;17.80;;;;;;;4.18;42.85;101463.47;104643;1275;59971;-72
2022/03/23 06:14:23;;;;;;;30.80;15.90;;;;;;;4.31;42.18;101459.95;104451;1274;1002900;-70
2022/03/23 06:17:12;;;;;;;33.90;16.70;;;;;;;4.44;41.87;101459.91;105280;1274;68141;-71
2022/03/23 06:20:02;;;;;;;31.60;16.80;;;;;;;4.58;41.73;101453.17;104090;1275;1016490;-72
2022/03/23 06:22:51;;;;;;;35.20;17.00;;;;;;;4.73;41.01;101452.54;104884;1274;59507;-72
2022/03/23 06:25:40;;;;;;;37.10;16.90;;;;;;;4.87;40.55;101449.08;104991;1274;60986;-71
2022/03/23 06:28:28;;;;;;;34.70;17.90;;;;;;;5.01;40.62;101453.23;104877;1277;70176;-72
2022/03/23 06:31:17;;;;;;;35.80;17.30;;;;;;;5.16;40.03;101455.04;105463;1275;69525;-70
2022/03/23 06:34:07;;;;;;;32.30;15.60;;;;;;;5.31;39.56;101454.70;104883;1275;71699;-70
2022/03/23 06:36:55;;;;;;;30.90;16.00;;;;;;;5.47;38.74;101448.69;104799;1277;59416;-71
2022/03/23 06:39:43;;;;;;;32.60;17.70;;;;;;;5.67;38.75;101451.00;104916;1276;60493;-71
2022/03/23 06:42:32;;;;;;;32.10;16.00;;;;;;;5.93;38.12;101448.52;105285;1274;73206;-72
2022/03/23 06:45:21;;;;;;;34.50;16.20;;;;;;;6.41;37.15;101455.76;105056;1277;69928;-71
2022/03/23 06:48:09;;;;;;;31.50;17.20;;;;;;;7.61;35.20;101449.48;104438;1274;1003568;-71
2022/03/23 06:50:58;;;;;;;28.90;16.80;;;;;;;8.83;33.15;101443.09;105157;1274;59662;-71
2022/03/23 06:53:46;;;;;;;29.80;17.20;;;;;;;9.13;32.14;101437.02;104853;1277;60707;-73
2022/03/23 06:56:37;;;;;;;30.70;17.40;;;;;;;9.71;30.93;101441.31;105057;1276;71164;-73
2022/03/23 06:59:25;;;;;;;28.50;17.40;;;;;;;10.82;30.22;101438.21;105086;1273;67086;-73
2022/03/23 07:02:14;;;;;;;28.80;16.80;;;;;;;12.61;27.88;101436.98;104533;1274;1016632;-72
2022/03/23 07:05:03;;;;;;;28.70;16.10;;;;;;;14.72;25.38;101428.85;105314;1276;58834;-74
2022/03/23 07:11:01;;;;;;;26.90;16.10;;;;;;;18.31;20.20;101417.15;104957;1273;73214;-73
2022/03/23 07:13:49;;;;;;;24.00;15.60;;;;;;;19.73;18.75;101416.39;104853;1274;67515;-74
2022/03/23 07:16:38;;;;;;;24.30;15.60;;;;;;;20.83;17.50;101407.88;105375;1274;71456;-73
2022/03/23 07:19:29;;;;;;;21.80;13.70;;;;;;;21.80;16.48;101403.80;104784;1275;59657;-73
2022/03/23 07:22:18;;;;;;;22.20;14.50;;;;;;;22.58;15.68;101398.81;105006;1276;59415;-73
2022/03/23 07:25:07;;;;;;;22.20;14.70;;;;;;;23.29;15.45;101397.29;105057;1276;72561;-73
2022/03/23 07:27:55;;;;;;;20.40;13.80;;;;;;;23.74;14.36;101391.41;105002;1276;67298;-73
2022/03/23 07:30:44;;;;;;;20.80;14.60;;;;;;;24.11;13.74;101392.16;104889;1275;72927;-74
2022/03/23 07:33:32;;;;;;;21.80;13.40;;;;;;;24.47;13.10;101392.84;104876;1275;59183;-74
2022/03/23 07:36:20;;;;;;;19.10;13.40;;;;;;;24.88;12.87;101392.87;104953;1274;59320;-74
2022/03/23 07:39:09;;;;;;;21.30;13.40;;;;;;;25.24;12.59;101391.27;104948;1277;72242;-74
2022/03/23 07:42:02;;;;;;;19.60;12.60;;;;;;;25.62;12.16;101387.66;104771;1277;66706;-74
2022/03/23 07:44:50;;;;;;;20.00;13.40;;;;;;;25.80;11.78;101383.85;104874;1275;73308;-74
2022/03/23 07:47:39;;;;;;;18.20;13.10;;;;;;;25.98;11.87;101385.08;104750;1274;59424;-74
2022/03/23 07:50:27;;;;;;;20.00;13.60;;;;;;;26.14;11.41;101383.61;105269;1275;59654;-74
2022/03/23 07:53:18;;;;;;;16.80;11.70;;;;;;;26.31;11.26;101386.56;104919;1276;73060;-74
2022/03/23 07:56:06;;;;;;;16.90;13.30;;;;;;;26.30;10.65;101385.71;104883;1274;69434;-74
2022/03/23 07:58:55;;;;;;;16.90;12.30;;;;;;;26.43;10.60;101378.30;104850;1274;73138;-74
2022/03/23 08:01:43;;;;;;;16.50;11.40;;;;;;;26.64;10.45;101376.94;104647;1274;60922;-74
2022/03/23 08:04:32;;;;;;;18.90;11.30;;;;;;;26.95;9.94;101376.34;104982;1274;60562;-74
2022/03/23 08:07:21;;;;;;;20.80;11.70;;;;;;;27.37;9.74;101377.51;104910;1275;72734;-74
2022/03/23 08:10:09;;;;;;;16.80;10.90;;;;;;;27.50;9.55;101377.89;104690;1276;67788;-73
2022/03/23 08:12:57;;;;;;;19.10;12.10;;;;;;;27.51;9.61;101376.80;104701;1274;73109;-75
2022/03/23 08:15:46;;;;;;;16.80;11.00;;;;;;;27.80;9.63;101375.52;104622;1275;59408;-74
2022/03/23 08:18:36;;;;;;;16.10;10.90;;;;;;;27.98;9.45;101380.06;104722;1277;60631;-73
2022/03/23 08:21:25;;;;;;;13.20;9.20;;;;;;;27.78;8.90;101378.15;104856;1274;71228;-73
2022/03/23 08:24:14;;;;;;;13.90;9.80;;;;;;;27.71;8.88;101375.68;104861;1274;67328;-74
2022/03/23 08:27:02;;;;;;;15.20;10.30;;;;;;;27.80;8.71;101377.45;104972;1274;73024;-75
2022/03/23 08:29:51;;;;;;;15.40;9.40;;;;;;;28.16;8.67;101377.52;104863;1274;59702;-74
2022/03/23 08:32:42;;;;;;;13.50;8.20;;;;;;;28.34;7.76;101375.90;104849;1276;59318;-74
2022/03/23 08:35:32;;;;;;;13.30;8.00;;;;;;;28.59;7.47;101376.23;104901;1275;71182;-75
2022/03/23 08:38:20;;;;;;;12.70;7.20;;;;;;;28.65;7.58;101371.80;104899;1275;68183;-75
2022/03/23 08:41:08;;;;;;;12.50;7.50;;;;;;;28.73;7.39;101375.22;104848;1277;71772;-74
2022/03/23 08:43:58;;;;;;;12.30;7.70;;;;;;;28.98;7.17;101376.40;105143;1275;59317;-74
2022/03/23 08:46:46;;;;;;;15.40;8.00;;;;;;;29.11;7.21;101373.73;105095;1275;60239;-74
2022/03/23 08:49:36;;;;;;;14.50;8.10;;;;;;;29.42;7.29;101370.83;104897;1275;72594;-74
2022/03/23 08:52:25;;;;;;;13.40;8.10;;;;;;;29.62;7.13;101372.23;104821;1274;66845;-75
2022/03/23 08:55:19;;;;;;;12.40;7.70;;;;;;;29.61;7.12;101371.35;104871;1274;73253;-75
2022/03/23 08:58:09;;;;;;;12.40;8.90;;;;;;;29.76;7.35;101366.78;104607;1276;59834;-74
2022/03/23 09:00:59;;;;;;;20.80;8.90;;;;;;;30.00;7.21;101368.21;104904;1277;59335;-75
2022/03/23 09:03:53;;;;;;;15.30;10.10;;;;;;;30.00;7.26;101369.73;104964;1275;232250;-74
2022/03/23 09:06:42;;;;;;;13.50;9.10;;;;;;;29.95;7.39;101366.77;105086;1276;67900;-75
2022/03/23 09:09:31;;;;;;;13.80;8.90;;;;;;;30.05;7.32;101364.61;104900;1275;72015;-73
2022/03/23 09:12:20;;;;;;;13.80;9.10;;;;;;;30.04;7.43;101361.48;105002;1276;59407;-74
2022/03/23 09:15:11;;;;;;;15.90;8.80;;;;;;;30.03;7.62;101366.17;104773;1276;60460;-74
2022/03/23 09:18:02;;;;;;;16.90;9.70;;;;;;;29.99;7.56;101361.00;104864;1277;72197;-75
2022/03/23 09:20:50;;;;;;;15.20;9.20;;;;;;;30.00;7.50;101364.96;105245;1274;67825;-74
2022/03/23 09:23:38;;;;;;;12.30;8.90;;;;;;;29.54;7.66;101368.91;104896;1274;72907;-74
2022/03/23 09:26:29;;;;;;;13.50;8.70;;;;;;;29.33;8.06;101369.62;105050;1274;59823;-75
2022/03/23 09:29:18;;;;;;;14.60;9.00;;;;;;;29.41;8.19;101371.55;105145;1274;60647;-74
2022/03/23 09:32:10;;;;;;;15.50;9.90;;;;;;;29.10;8.04;101372.64;104850;1274;72630;-73
2022/03/23 09:34:58;;;;;;;13.00;9.20;;;;;;;29.01;8.10;101373.02;104739;1274;67086;-74
2022/03/23 09:37:50;;;;;;;14.80;9.80;;;;;;;28.97;8.32;101373.64;104854;1276;73346;-74
2022/03/23 09:40:39;;;;;;;16.70;10.00;;;;;;;28.87;8.51;101382.27;104876;1274;59266;-74
2022/03/23 09:43:28;;;;;;;15.60;11.40;;;;;;;28.40;8.70;101374.35;104767;1276;60571;-74
2022/03/23 09:46:17;;;;;;;17.80;10.70;;;;;;;28.39;9.16;101370.27;104933;1277;72491;-75
2022/03/23 09:49:06;;;;;;;17.70;12.40;;;;;;;28.57;9.40;101369.19;104744;1274;67918;-75
2022/03/23 09:51:56;;;;;;;17.80;11.90;;;;;;;28.79;9.44;101368.70;105103;1274;71336;-75
2022/03/23 09:54:45;;;;;;;15.70;11.60;;;;;;;29.24;9.30;101360.85;104706;1277;60132;-74
2022/03/23 09:57:35;;;;;;;17.00;12.70;;;;;;;29.30;9.36;101356.38;104863;1275;59665;-74
2022/03/23 10:00:28;;;;;;;15.90;12.50;;;;;;;29.21;9.48;101356.72;105054;1275;72582;-75
2022/03/23 10:03:45;;;;;;;16.40;12.10;;;;;;;29.49;9.39;101350.50;104757;1276;68322;-74
2022/03/23 10:06:44;;;;;;;17.90;13.30;;;;;;;29.80;9.29;101345.60;105231;1275;72962;-75
2022/03/23 10:09:35;;;;;;;18.40;12.30;;;;;;;29.99;9.51;101351.60;104943;1274;59318;-74
2022/03/23 10:13:22;;;;;;;17.30;13.20;;;;;;;29.99;9.75;101342.02;104906;1274;60221;-74
2022/03/23 10:17:09;;;;;;;14.90;11.70;;;;;;;30.22;9.70;101341.14;104938;1274;72529;-75
2022/03/23 10:20:00;;;;;;;22.60;12.80;;;;;;;30.06;9.72;101334.13;105187;1274;65941;-75
2022/03/23 10:22:53;;;;;;;18.90;13.40;;;;;;;30.17;9.66;101338.75;104880;1275;73784;-75
2022/03/23 10:25:44;;;;;;;18.30;14.00;;;;;;;30.60;9.59;101334.79;104866;1274;59305;-74
2022/03/23 10:28:34;;;;;;;17.50;13.40;;;;;;;31.11;9.34;101334.96;104889;1274;59507;-75
2022/03/23 10:31:27;;;;;;;17.60;13.50;;;;;;;31.50;9.21;101328.15;105119;1275;72592;-74
2022/03/23 10:34:15;;;;;;;21.40;14.80;;;;;;;31.48;9.42;101324.79;104781;1275;68271;-74
2022/03/23 10:37:04;;;;;;;18.90;13.70;;;;;;;31.01;9.45;101329.59;104810;1275;72772;-75
2022/03/23 10:39:58;;;;;;;19.90;14.00;;;;;;;30.67;9.60;101327.45;104855;1275;59302;-75
2022/03/23 10:42:49;;;;;;;20.90;14.00;;;;;;;30.66;9.78;101325.13;105073;1274;59329;-73
2022/03/23 10:45:38;;;;;;;24.00;14.60;;;;;;;30.57;9.89;101322.79;105139;1274;72679;-74
2022/03/23 10:48:29;;;;;;;19.00;14.20;;;;;;;30.55;10.08;101324.23;105032;1274;68209;-74
2022/03/23 10:51:30;;;;;;;20.30;14.50;;;;;;;30.51;10.01;101321.61;105043;1277;70525;-74
2022/03/23 10:54:23;;;;;;;20.60;13.40;;;;;;;30.53;9.91;101320.31;104761;1275;59632;-74
2022/03/23 10:57:13;;;;;;;19.20;13.90;;;;;;;30.62;9.82;101314.86;105089;1275;59306;-74
2022/03/23 11:00:03;;;;;;;19.70;14.10;;;;;;;30.47;9.91;101315.50;104728;1275;72530;-74
2022/03/23 11:02:51;;;;;;;21.30;14.30;;;;;;;30.06;10.31;101314.48;104918;1275;66701;-74
2022/03/23 11:05:51;;;;;;;22.00;14.00;;;;;;;29.82;10.59;101317.73;104788;1277;73015;-74
2022/03/23 11:08:43;;;;;;;20.70;13.60;;;;;;;29.46;10.87;101311.77;104811;1277;59298;-74
2022/03/23 11:17:29;;;;;;;25.20;16.90;;;;;;;28.66;11.99;101312.81;104994;1275;67833;-74
2022/03/23 11:20:20;;;;;;;27.00;16.40;;;;;;;28.57;12.43;101314.17;104736;1274;73027;-73
2022/03/23 11:23:26;;;;;;;23.30;17.40;;;;;;;28.33;14.09;101312.05;104753;1274;59971;-75
2022/03/23 11:26:15;;;;;;;26.50;17.30;;;;;;;28.04;14.58;101309.79;104938;1275;60088;-74
2022/03/23 11:29:03;;;;;;;27.70;18.10;;;;;;;27.45;15.31;101307.50;104712;1274;72466;-74
2022/03/23 11:31:55;;;;;;;28.90;18.00;;;;;;;27.13;15.91;101305.17;104860;1277;67925;-74
2022/03/23 11:34:48;;;;;;;27.90;20.20;;;;;;;27.01;16.17;101304.37;104593;1277;72898;-74
2022/03/23 11:37:40;;;;;;;29.00;18.00;;;;;;;26.57;16.69;101305.47;104750;1274;59372;-74
2022/03/23 11:40:30;;;;;;;30.70;19.10;;;;;;;26.25;17.07;101304.30;104783;1274;59663;-74
2022/03/23 11:43:23;;;;;;;27.30;18.70;;;;;;;25.86;17.60;101299.04;104841;1274;72574;-73
2022/03/23 11:46:31;;;;;;;28.40;18.30;;;;;;;25.60;18.03;101296.52;105111;1275;68373;-73
2022/03/23 11:49:53;;;;;;;29.90;18.90;;;;;;;25.50;18.24;101299.23;104770;1274;73153;-73
2022/03/23 11:52:58;;;;;;;24.70;17.60;;;;;;;25.26;18.05;101299.61;104877;1274;59320;-74
2022/03/23 11:55:52;;;;;;;26.80;18.30;;;;;;;24.80;18.57;101298.71;104819;1274;60507;-73
2022/03/23 11:58:41;;;;;;;29.60;18.90;;;;;;;24.21;19.31;101307.95;104851;1278;72620;-74
2022/03/23 12:01:31;;;;;;;28.70;19.30;;;;;;;23.79;19.50;101304.64;104753;1274;67963;-74
2022/03/23 12:04:25;;;;;;;25.20;17.40;;;;;;;23.27;20.41;101304.14;105082;1274;70683;-74
2022/03/23 12:07:15;;;;;;;25.50;17.30;;;;;;;22.85;20.84;101304.60;104760;1274;59264;-74
2022/03/23 12:10:20;;;;;;;29.10;18.50;;;;;;;22.31;21.19;101304.14;104837;1274;59354;-72
2022/03/23 12:13:16;;;;;;;27.30;18.90;;;;;;;21.75;21.72;101304.63;105028;1274;71425;-74
2022/03/23 12:16:06;;;;;;;30.20;18.50;;;;;;;21.39;22.25;101309.83;104865;1275;68030;-71
2022/03/23 12:19:04;;;;;;;30.40;17.40;;;;;;;21.23;22.36;101303.71;104914;1274;71655;-72
2022/03/23 12:21:57;;;;;;;26.50;18.10;;;;;;;21.13;22.80;101304.20;104800;1274;59836;-71
2022/03/23 12:24:58;;;;;;;28.60;17.80;;;;;;;20.95;23.31;101305.71;105159;1274;60809;-71
2022/03/23 12:28:23;;;;;;;28.90;18.40;;;;;;;20.30;24.22;101306.17;105125;1274;73204;-71
2022/03/23 12:31:15;;;;;;;29.40;18.10;;;;;;;19.47;25.54;101307.38;104867;1274;67330;-71
2022/03/23 12:34:16;;;;;;;27.20;17.20;;;;;;;18.98;26.31;101305.52;104968;1274;72289;-71
2022/03/23 12:37:19;;;;;;;28.60;17.80;;;;;;;18.40;27.31;101308.66;104894;1275;59371;-73
2022/03/23 12:40:12;;;;;;;31.10;18.10;;;;;;;17.86;28.37;101307.08;104847;1274;59451;-71
2022/03/23 12:43:02;;;;;;;34.90;18.70;;;;;;;17.31;29.63;101313.44;104907;1274;71263;-71
2022/03/23 12:45:51;;;;;;;30.50;17.90;;;;;;;16.82;30.50;101317.76;104609;1277;68766;-71
2022/03/23 12:58:42;;;;;;;31.40;17.80;;;;;;;15.15;33.41;101322.17;104558;1278;73225;-70
2022/03/23 13:01:36;;;;;;;29.80;18.00;;;;;;;14.87;33.72;101314.48;105205;1277;68096;-70
2022/03/23 13:04:44;;;;;;;31.30;18.20;;;;;;;14.59;33.92;101315.14;104598;1277;73130;-71
2022/03/23 13:07:34;;;;;;;30.40;16.70;;;;;;;14.39;34.31;101323.77;104339;1276;1003295;-71
2022/03/23 13:10:24;;;;;;;32.10;18.10;;;;;;;14.20;34.65;101322.65;104888;1276;61159;-71
2022/03/23 13:13:18;;;;;;;30.70;17.80;;;;;;;13.92;34.75;101324.43;104884;1276;70915;-71
2022/03/23 13:16:23;;;;;;;29.50;17.30;;;;;;;13.66;35.06;101322.17;104817;1277;65992;-71
2022/03/23 13:19:13;;;;;;;30.10;16.30;;;;;;;13.50;35.64;101322.65;104775;1274;71846;-70
2022/03/23 13:22:03;;;;;;;34.20;18.80;;;;;;;13.38;35.62;101326.69;105015;1274;59290;-70
2022/03/23 13:25:15;;;;;;;31.20;19.00;;;;;;;13.24;35.64;101329.35;104663;1278;59626;-69